Time;durP1;ratioP1;P1;durP2;ratioP2;P2;SDS_P1;SDS_P2;PMS_P1;PMS_P2;Temp;Humidity;BMP_temperature;BMP_pressure;BME280_temperature;BME280_humidity;BME280_pressure;Samples;Min_cycle;Max_cycle;Signal;HPM_P1;HPM_P2
2023/09/09 00:00:57;;;;;;;15.35;13.75;;;23.00;99.90;;;;;;4959265;28;20031;-77
2023/09/09 00:03:23;;;;;;;15.48;14.02;;;22.90;99.90;;;;;;4944041;28;20127;-77
2023/09/09 00:05:52;;;;;;;16.15;12.63;;;22.90;99.90;;;;;;4943810;29;20124;-77
2023/09/09 00:08:21;;;;;;;13.88;12.48;;;22.90;99.90;;;;;;4962690;28;20438;-77
2023/09/09 00:10:47;;;;;;;14.18;12.68;;;22.80;99.90;;;;;;4939724;28;20459;-77
2023/09/09 00:13:13;;;;;;;15.45;13.95;;;22.80;99.90;;;;;;4940279;28;20031;-77
2023/09/09 00:15:39;;;;;;;15.02;13.23;;;22.80;99.90;;;;;;4954543;28;20033;-77
2023/09/09 00:18:04;;;;;;;13.93;12.52;;;22.80;99.90;;;;;;4962415;28;20385;-77
2023/09/09 00:20:35;;;;;;;16.05;14.45;;;22.70;99.90;;;;;;4943401;28;20093;-77
2023/09/09 00:23:07;;;;;;;15.50;13.32;;;22.70;99.90;;;;;;4954955;28;20037;-77
2023/09/09 00:25:34;;;;;;;13.15;11.85;;;22.70;99.90;;;;;;4956823;28;20478;-77
2023/09/09 00:27:59;;;;;;;16.00;13.45;;;22.70;99.90;;;;;;4962667;28;20070;-77
2023/09/09 00:30:25;;;;;;;14.20;12.80;;;22.70;99.90;;;;;;4958792;28;20057;-77
2023/09/09 00:32:50;;;;;;;14.75;12.13;;;22.70;99.90;;;;;;4954930;28;20031;-77
2023/09/09 00:35:16;;;;;;;16.33;14.73;;;22.60;99.90;;;;;;4942759;29;20441;-77
2023/09/09 00:37:42;;;;;;;13.85;12.30;;;22.60;99.90;;;;;;4931211;28;20119;-77
2023/09/09 00:40:08;;;;;;;15.07;13.50;;;22.60;99.90;;;;;;4962194;28;20174;-77
2023/09/09 00:42:33;;;;;;;13.50;11.98;;;22.50;99.90;;;;;;4960199;28;20073;-77
2023/09/09 00:44:59;;;;;;;13.30;11.48;;;22.50;99.90;;;;;;4954363;28;20023;-78
2023/09/09 00:47:25;;;;;;;13.65;12.30;;;22.40;99.90;;;;;;4958610;28;20023;-77
2023/09/09 00:49:51;;;;;;;13.57;12.23;;;22.40;99.90;;;;;;4944903;28;20035;-78
2023/09/09 00:52:17;;;;;;;13.90;12.50;;;22.40;99.90;;;;;;4956600;28;20393;-78
2023/09/09 00:54:42;;;;;;;14.88;13.38;;;22.40;99.90;;;;;;4954496;28;20023;-78
2023/09/09 00:57:11;;;;;;;14.68;12.80;;;22.30;99.90;;;;;;4941154;28;20033;-77
2023/09/09 00:59:38;;;;;;;15.40;13.20;;;22.30;99.90;;;;;;4955864;28;20019;-78
2023/09/09 01:02:04;;;;;;;14.73;13.23;;;22.30;99.90;;;;;;4962136;28;20549;-78
2023/09/09 01:04:30;;;;;;;15.80;14.20;;;22.30;99.90;;;;;;4958644;28;20103;-77
2023/09/09 01:07:00;;;;;;;14.10;12.55;;;22.30;99.90;;;;;;4954155;28;20118;-78
2023/09/09 01:09:25;;;;;;;16.93;14.03;;;22.30;99.90;;;;;;4957898;28;20046;-77
2023/09/09 01:11:52;;;;;;;15.95;14.45;;;22.30;99.90;;;;;;4951969;28;20051;-77
2023/09/09 01:14:17;;;;;;;15.70;12.88;;;22.30;99.90;;;;;;4962375;28;20441;-77
2023/09/09 01:16:43;;;;;;;14.73;11.85;;;22.20;99.90;;;;;;4957515;28;20560;-77
2023/09/09 01:19:12;;;;;;;15.50;13.98;;;22.20;99.90;;;;;;4954024;28;20066;-77
2023/09/09 01:21:40;;;;;;;14.90;13.35;;;22.20;99.90;;;;;;4959818;28;20019;-77
2023/09/09 01:24:06;;;;;;;14.13;12.05;;;22.20;99.90;;;;;;4962023;28;20034;-77
2023/09/09 01:26:32;;;;;;;13.75;12.35;;;22.20;99.90;;;;;;4953890;28;20007;-77
2023/09/09 01:28:57;;;;;;;13.77;12.38;;;22.10;99.90;;;;;;4955868;28;20033;-77
2023/09/09 01:31:23;;;;;;;14.13;12.55;;;22.10;99.90;;;;;;4961501;28;20025;-77
2023/09/09 01:33:50;;;;;;;14.05;11.10;;;22.10;99.90;;;;;;4940780;28;20126;-77
2023/09/09 01:36:16;;;;;;;15.48;12.35;;;22.10;99.90;;;;;;4953786;28;20035;-78
2023/09/09 01:38:42;;;;;;;15.32;13.73;;;22.00;99.90;;;;;;4959607;28;20023;-77
2023/09/09 01:41:07;;;;;;;17.30;12.50;;;22.00;99.90;;;;;;4961928;28;20528;-78
2023/09/09 01:43:33;;;;;;;12.15;10.95;;;22.00;99.90;;;;;;4954226;28;20591;-78
2023/09/09 01:45:58;;;;;;;15.48;11.35;;;22.00;99.90;;;;;;4955617;28;20399;-77
2023/09/09 01:48:25;;;;;;;12.50;10.80;;;21.90;99.90;;;;;;4961596;28;20035;-78
2023/09/09 01:50:51;;;;;;;13.50;11.23;;;21.90;99.90;;;;;;4961507;28;20031;-77
2023/09/09 01:53:17;;;;;;;13.70;11.65;;;21.90;99.90;;;;;;4955200;28;20137;-78
2023/09/09 01:55:42;;;;;;;11.65;9.85;;;21.80;99.90;;;;;;4959638;28;20074;-77
2023/09/09 01:58:08;;;;;;;12.60;9.77;;;21.80;99.90;;;;;;4950801;28;20482;-77
2023/09/09 02:00:34;;;;;;;13.15;11.65;;;21.80;99.90;;;;;;4964615;28;20466;-78
2023/09/09 02:02:59;;;;;;;12.70;10.90;;;21.70;99.90;;;;;;4962518;28;20046;-77
2023/09/09 02:05:25;;;;;;;12.77;10.52;;;21.70;99.90;;;;;;4967498;28;20712;-77
2023/09/09 02:07:51;;;;;;;10.38;8.10;;;21.70;99.90;;;;;;4943872;29;20122;-77
2023/09/09 02:10:17;;;;;;;12.65;10.27;;;21.60;99.90;;;;;;4964976;28;20026;-77
2023/09/09 02:12:42;;;;;;;10.68;9.57;;;21.60;99.90;;;;;;4965186;28;20031;-77
2023/09/09 02:15:11;;;;;;;11.07;9.23;;;21.60;99.90;;;;;;4943910;28;20287;-78
2023/09/09 02:17:37;;;;;;;10.23;9.13;;;21.50;99.90;;;;;;4956973;28;20042;-78
2023/09/09 02:20:05;;;;;;;12.13;10.85;;;21.50;99.90;;;;;;4950248;29;20034;-78
2023/09/09 02:22:31;;;;;;;13.00;11.75;;;21.50;99.90;;;;;;4965093;28;20034;-77
2023/09/09 02:24:57;;;;;;;12.80;11.13;;;21.50;99.90;;;;;;4958058;28;20023;-77
2023/09/09 02:27:23;;;;;;;12.02;10.82;;;21.50;99.90;;;;;;4940274;29;20039;-77
2023/09/09 02:29:49;;;;;;;14.02;12.50;;;21.40;99.90;;;;;;4964802;28;20031;-77
2023/09/09 02:32:19;;;;;;;16.02;12.52;;;21.40;99.90;;;;;;4961513;28;20026;-77
2023/09/09 02:34:45;;;;;;;14.38;12.93;;;21.40;99.90;;;;;;4956769;28;20509;-77
2023/09/09 02:37:16;;;;;;;13.18;10.95;;;21.40;99.90;;;;;;4960886;28;20038;-78
2023/09/09 02:39:47;;;;;;;13.45;11.98;;;21.40;99.90;;;;;;4964413;28;20039;-78
2023/09/09 02:42:15;;;;;;;12.73;11.43;;;21.30;99.90;;;;;;4959736;28;20031;-77
2023/09/09 02:44:41;;;;;;;11.07;9.93;;;21.30;99.90;;;;;;4956853;28;21124;-77
2023/09/09 02:47:08;;;;;;;15.18;13.57;;;21.30;99.90;;;;;;4945205;29;20031;-78
2023/09/09 02:49:35;;;;;;;14.30;12.55;;;21.30;99.90;;;;;;4963941;28;20041;-77
2023/09/09 02:52:01;;;;;;;14.68;11.63;;;21.20;99.90;;;;;;4956156;28;20018;-77
2023/09/09 02:54:26;;;;;;;13.05;11.75;;;21.20;99.90;;;;;;4957464;28;20035;-78
2023/09/09 02:56:52;;;;;;;13.77;10.15;;;21.20;99.90;;;;;;4963975;28;20046;-77
2023/09/09 02:59:18;;;;;;;14.63;11.48;;;21.20;99.90;;;;;;4959652;28;20062;-78
2023/09/09 03:01:44;;;;;;;12.30;11.05;;;21.10;99.90;;;;;;4955842;28;20020;-77
2023/09/09 03:04:10;;;;;;;9.00;7.97;;;21.10;99.90;;;;;;4967114;28;20030;-78
2023/09/09 03:06:36;;;;;;;8.02;6.82;;;21.10;99.90;;;;;;4956144;28;20027;-78
2023/09/09 03:09:03;;;;;;;7.05;6.00;;;21.00;99.90;;;;;;4964030;28;20037;-77
2023/09/09 03:11:28;;;;;;;7.10;6.38;;;21.00;99.90;;;;;;4941146;29;20020;-77
2023/09/09 03:13:54;;;;;;;9.25;8.32;;;20.90;99.90;;;;;;4963984;28;20081;-77
2023/09/09 03:16:20;;;;;;;12.50;10.73;;;20.90;99.90;;;;;;4955827;28;20038;-77
2023/09/09 03:18:45;;;;;;;10.38;9.27;;;20.90;99.90;;;;;;4957838;28;20031;-77
2023/09/09 03:21:11;;;;;;;10.20;9.20;;;20.90;99.90;;;;;;4946885;29;20054;-77
2023/09/09 03:23:36;;;;;;;10.02;8.93;;;20.80;99.90;;;;;;4959947;28;20130;-77
2023/09/09 03:26:04;;;;;;;10.82;9.55;;;20.80;99.90;;;;;;4956034;28;20054;-77
2023/09/09 03:28:30;;;;;;;10.65;9.57;;;20.80;99.90;;;;;;4948926;29;20058;-77
2023/09/09 03:30:57;;;;;;;9.45;8.55;;;20.80;99.90;;;;;;4963447;28;20027;-77
2023/09/09 03:33:24;;;;;;;7.95;7.15;;;20.80;99.90;;;;;;4956521;28;20074;-77
2023/09/09 03:35:50;;;;;;;8.82;7.85;;;20.70;99.90;;;;;;4956910;28;20071;-78
2023/09/09 03:38:16;;;;;;;8.70;7.40;;;20.80;99.90;;;;;;4963266;28;20034;-77
2023/09/09 03:40:44;;;;;;;8.63;7.72;;;20.70;99.90;;;;;;4956592;28;20050;-77
2023/09/09 03:43:11;;;;;;;9.98;8.98;;;20.70;99.90;;;;;;4955633;28;20061;-77
2023/09/09 03:45:37;;;;;;;7.80;7.00;;;20.70;99.90;;;;;;4959627;28;20023;-77
2023/09/09 03:48:06;;;;;;;6.70;5.38;;;20.70;99.90;;;;;;4963522;28;20572;-77
2023/09/09 03:50:33;;;;;;;6.85;5.50;;;20.70;99.90;;;;;;4957073;28;20030;-77
2023/09/09 03:52:59;;;;;;;6.85;6.07;;;20.70;99.90;;;;;;4954194;28;20109;-77
2023/09/09 03:55:25;;;;;;;6.40;5.65;;;20.60;99.90;;;;;;4962972;28;20023;-77
2023/09/09 03:57:52;;;;;;;5.95;5.35;;;20.60;99.90;;;;;;4961257;28;20047;-77
2023/09/09 04:00:17;;;;;;;7.55;6.75;;;20.60;99.90;;;;;;4955168;28;20030;-78
2023/09/09 04:02:43;;;;;;;8.82;7.05;;;20.60;99.90;;;;;;4954533;28;20035;-77
2023/09/09 04:05:09;;;;;;;7.90;7.10;;;20.50;99.90;;;;;;4960462;28;20031;-77
2023/09/09 04:07:36;;;;;;;9.57;7.90;;;20.50;99.90;;;;;;4956789;28;20034;-77
2023/09/09 04:10:05;;;;;;;8.55;7.40;;;20.40;99.90;;;;;;4955129;28;20089;-76
2023/09/09 04:12:31;;;;;;;7.93;7.13;;;20.40;99.90;;;;;;4962785;28;20490;-77
2023/09/09 04:14:57;;;;;;;6.88;6.18;;;20.40;99.90;;;;;;4949721;28;20025;-77
2023/09/09 04:17:22;;;;;;;8.50;7.35;;;20.40;99.90;;;;;;4961202;28;20782;-77
2023/09/09 04:19:49;;;;;;;7.10;6.40;;;20.30;99.90;;;;;;4955703;28;20054;-77
2023/09/09 04:22:14;;;;;;;6.93;6.22;;;20.30;99.90;;;;;;4955926;28;20027;-77
2023/09/09 04:24:40;;;;;;;8.25;7.45;;;20.30;99.90;;;;;;4962547;28;20102;-77
2023/09/09 04:27:06;;;;;;;8.68;7.68;;;20.30;99.90;;;;;;4959320;28;20023;-76
2023/09/09 04:29:31;;;;;;;12.13;10.88;;;20.30;99.90;;;;;;4954678;28;20093;-77
2023/09/09 04:31:58;;;;;;;14.65;13.10;;;20.30;99.90;;;;;;4959679;28;20019;-77
2023/09/09 04:34:24;;;;;;;15.65;12.93;;;20.30;99.90;;;;;;4961215;28;20495;-77
2023/09/09 04:36:50;;;;;;;18.02;16.00;;;20.30;99.90;;;;;;4955373;28;20034;-77
2023/09/09 04:39:15;;;;;;;22.25;19.92;;;20.30;99.90;;;;;;4955529;28;20394;-77
2023/09/09 04:41:42;;;;;;;26.08;22.58;;;20.30;99.90;;;;;;4962143;28;20496;-76
2023/09/09 04:44:09;;;;;;;24.70;22.17;;;20.30;99.90;;;;;;4959678;28;20026;-77
2023/09/09 04:46:34;;;;;;;24.35;21.65;;;20.30;99.90;;;;;;4954260;28;20034;-77
2023/09/09 04:49:00;;;;;;;26.30;23.60;;;20.40;99.90;;;;;;4959394;28;20871;-77
2023/09/09 04:51:28;;;;;;;26.50;23.67;;;20.40;99.90;;;;;;4961953;28;20029;-77
2023/09/09 04:53:54;;;;;;;25.73;22.75;;;20.40;99.90;;;;;;4955974;28;20106;-77
2023/09/09 04:56:20;;;;;;;25.98;22.80;;;20.40;99.90;;;;;;4954731;28;20106;-78
2023/09/09 04:58:45;;;;;;;29.10;26.10;;;20.30;99.90;;;;;;4962052;28;20027;-77
2023/09/09 05:01:11;;;;;;;29.05;26.05;;;20.30;99.90;;;;;;4959374;28;20035;-77
2023/09/09 05:03:37;;;;;;;25.42;22.17;;;20.30;99.90;;;;;;4936962;28;20023;-77
2023/09/09 05:06:03;;;;;;;24.10;21.65;;;20.30;99.90;;;;;;4958846;28;20035;-77
2023/09/09 05:08:28;;;;;;;22.27;20.05;;;20.30;99.90;;;;;;4962317;28;20026;-77
2023/09/09 05:10:54;;;;;;;21.88;19.50;;;20.30;99.90;;;;;;4952278;28;20031;-77
2023/09/09 05:13:20;;;;;;;27.60;23.27;;;20.30;99.90;;;;;;4957617;28;20031;-77
2023/09/09 05:15:46;;;;;;;35.13;31.42;;;20.30;99.90;;;;;;4954334;28;20039;-77
2023/09/09 05:18:12;;;;;;;40.72;35.42;;;20.30;99.90;;;;;;4960261;28;20024;-77
2023/09/09 05:20:38;;;;;;;44.10;39.53;;;20.30;99.90;;;;;;4944099;28;20030;-77
2023/09/09 05:23:03;;;;;;;41.35;36.90;;;20.30;99.90;;;;;;4937549;28;20635;-77
2023/09/09 05:25:29;;;;;;;40.00;35.80;;;20.30;99.90;;;;;;4960455;28;20577;-77
2023/09/09 05:27:55;;;;;;;86.75;45.40;;;20.30;99.90;;;;;;4965612;28;20406;-76
2023/09/09 05:30:21;;;;;;;46.35;41.78;;;20.30;99.90;;;;;;4961651;28;20034;-74
2023/09/09 05:32:46;;;;;;;49.05;44.15;;;20.30;99.90;;;;;;4956450;28;20023;-75
2023/09/09 05:35:12;;;;;;;38.80;34.92;;;20.30;99.90;;;;;;4959650;28;20074;-75
2023/09/09 05:37:41;;;;;;;64.75;46.83;;;20.30;99.90;;;;;;4957992;28;20042;-75
2023/09/09 05:40:07;;;;;;;49.60;44.08;;;20.30;99.90;;;;;;4965628;28;20043;-75
2023/09/09 05:42:33;;;;;;;40.95;36.97;;;20.30;99.90;;;;;;4963130;28;20034;-75
2023/09/09 05:44:59;;;;;;;62.05;41.50;;;20.30;99.90;;;;;;4958004;28;20030;-74
2023/09/09 05:47:24;;;;;;;52.75;43.75;;;20.30;99.90;;;;;;4961555;28;20027;-75
2023/09/09 05:49:50;;;;;;;38.75;35.05;;;20.30;99.90;;;;;;4965517;28;20494;-75
2023/09/09 05:52:15;;;;;;;45.28;40.83;;;20.30;99.90;;;;;;4959157;28;20459;-75
2023/09/09 05:54:42;;;;;;;50.67;35.67;;;20.20;99.90;;;;;;4957872;28;20577;-74
2023/09/09 05:57:08;;;;;;;38.05;34.53;;;20.20;99.90;;;;;;4964906;28;20493;-74
2023/09/09 05:59:34;;;;;;;45.83;41.00;;;20.20;99.90;;;;;;4963388;28;20118;-75
2023/09/09 06:02:00;;;;;;;46.28;41.40;;;20.20;99.90;;;;;;4957222;28;20157;-75
2023/09/09 06:04:25;;;;;;;54.95;40.50;;;20.20;99.90;;;;;;4967971;28;20475;-75
2023/09/09 06:06:51;;;;;;;36.65;32.95;;;20.20;99.90;;;;;;4956865;28;20032;-76
2023/09/09 06:09:17;;;;;;;40.95;36.75;;;20.10;99.90;;;;;;4963218;28;20118;-75
2023/09/09 06:11:43;;;;;;;45.60;33.97;;;20.10;99.90;;;;;;4961007;28;20100;-77
2023/09/09 06:14:08;;;;;;;37.05;33.55;;;20.10;99.90;;;;;;4957279;28;20033;-77
2023/09/09 06:16:34;;;;;;;41.53;37.47;;;20.10;99.90;;;;;;4962560;28;20486;-77
2023/09/09 06:19:00;;;;;;;52.08;41.30;;;20.10;99.90;;;;;;4934126;28;20027;-77
2023/09/09 06:21:26;;;;;;;42.83;38.53;;;20.10;99.90;;;;;;4947199;29;20012;-77
2023/09/09 06:23:51;;;;;;;41.55;37.55;;;20.10;99.90;;;;;;4963001;28;20536;-77
2023/09/09 06:26:17;;;;;;;38.50;34.70;;;20.00;99.90;;;;;;4939298;28;20062;-77
2023/09/09 06:28:43;;;;;;;41.72;37.75;;;20.00;99.90;;;;;;4961443;28;20492;-77
2023/09/09 06:31:08;;;;;;;39.63;35.70;;;20.00;99.90;;;;;;4964812;28;20501;-75
2023/09/09 06:33:34;;;;;;;41.90;37.70;;;20.10;99.90;;;;;;4958838;28;20110;-77
2023/09/09 06:36:00;;;;;;;34.50;31.02;;;20.00;99.90;;;;;;4938531;28;20496;-77
2023/09/09 06:38:25;;;;;;;55.08;40.65;;;20.00;99.90;;;;;;4956729;28;20616;-77
2023/09/09 06:40:51;;;;;;;42.45;38.20;;;20.00;99.90;;;;;;4956774;28;20058;-77
2023/09/09 06:43:22;;;;;;;44.83;37.80;;;20.00;99.90;;;;;;4963798;28;20020;-77
2023/09/09 06:45:48;;;;;;;39.40;35.58;;;20.00;99.90;;;;;;4961222;28;20070;-77
2023/09/09 06:48:16;;;;;;;42.70;38.60;;;20.00;99.90;;;;;;4957117;28;20034;-77
2023/09/09 06:50:46;;;;;;;57.58;39.05;;;19.90;99.90;;;;;;4961872;28;20051;-77
2023/09/09 06:53:13;;;;;;;70.35;40.83;;;19.90;99.90;;;;;;4964135;28;20025;-78
2023/09/09 06:55:39;;;;;;;117.65;41.55;;;19.90;99.90;;;;;;4972914;28;20023;-77
2023/09/09 06:58:04;;;;;;;39.58;35.70;;;19.80;99.90;;;;;;4956791;28;20046;-77
2023/09/09 07:00:30;;;;;;;49.38;44.33;;;19.70;99.90;;;;;;4964589;28;20378;-77
2023/09/09 07:02:56;;;;;;;45.63;41.13;;;19.80;99.90;;;;;;4959805;28;20111;-78
2023/09/09 07:05:22;;;;;;;47.55;42.85;;;19.80;99.90;;;;;;4964386;28;20023;-77
2023/09/09 07:07:47;;;;;;;48.08;42.20;;;19.80;99.90;;;;;;4959711;28;20018;-77
2023/09/09 07:10:13;;;;;;;41.25;36.90;;;19.80;99.90;;;;;;4966846;28;20042;-77
2023/09/09 07:12:39;;;;;;;49.80;44.53;;;19.80;99.90;;;;;;4952217;28;20525;-77
2023/09/09 07:15:05;;;;;;;43.63;39.03;;;19.90;99.90;;;;;;4958809;28;20854;-77
2023/09/09 07:17:31;;;;;;;47.17;42.17;;;19.90;99.90;;;;;;4955658;28;20028;-77
2023/09/09 07:19:56;;;;;;;45.10;40.20;;;20.00;99.90;;;;;;4962192;28;20078;-77
2023/09/09 07:22:22;;;;;;;45.42;40.45;;;20.00;99.90;;;;;;4962910;28;20038;-77
2023/09/09 07:24:48;;;;;;;57.28;49.03;;;20.10;99.90;;;;;;4968274;28;20034;-77
2023/09/09 07:27:14;;;;;;;110.28;51.17;;;20.10;99.90;;;;;;4957851;28;20046;-77
2023/09/09 07:29:40;;;;;;;77.20;53.88;;;20.10;99.90;;;;;;4962723;28;20065;-76
2023/09/09 07:32:06;;;;;;;67.85;49.42;;;20.00;99.90;;;;;;4959256;28;20042;-75
2023/09/09 07:34:32;;;;;;;93.53;56.08;;;20.00;99.90;;;;;;4955787;28;20047;-75
2023/09/09 07:36:58;;;;;;;59.88;51.20;;;20.10;99.90;;;;;;4961391;28;20036;-77
2023/09/09 07:39:27;;;;;;;102.32;54.70;;;20.10;99.90;;;;;;4963364;28;20038;-74
2023/09/09 07:41:52;;;;;;;67.40;55.92;;;20.10;99.90;;;;;;4942672;28;20632;-78
2023/09/09 07:44:18;;;;;;;60.95;49.80;;;20.00;99.90;;;;;;4957221;28;20051;-75
2023/09/09 07:46:44;;;;;;;61.05;49.65;;;20.00;99.90;;;;;;4963057;28;20031;-75
2023/09/09 07:49:09;;;;;;;64.15;50.47;;;20.10;99.90;;;;;;4960354;28;20105;-75
2023/09/09 07:51:35;;;;;;;62.60;50.88;;;20.20;99.90;;;;;;4955288;28;20086;-75
2023/09/09 07:54:01;;;;;;;75.18;59.35;;;20.20;99.90;;;;;;4961202;28;20032;-75
2023/09/09 07:56:27;;;;;;;78.60;60.92;;;20.30;99.90;;;;;;4962845;28;20019;-75
2023/09/09 07:58:52;;;;;;;88.68;67.65;;;20.40;99.90;;;;;;4955764;28;20030;-75
2023/09/09 08:01:18;;;;;;;89.03;68.45;;;20.40;99.90;;;;;;4956831;28;20023;-76
2023/09/09 08:03:44;;;;;;;76.00;61.47;;;20.50;99.90;;;;;;4946783;28;20027;-76
2023/09/09 08:06:09;;;;;;;62.10;52.33;;;20.50;99.90;;;;;;4941625;29;20026;-76
2023/09/09 08:08:35;;;;;;;94.50;61.30;;;20.50;99.90;;;;;;4963013;28;20549;-76
2023/09/09 08:11:05;;;;;;;66.18;56.83;;;20.60;99.90;;;;;;4935659;29;20514;-76
2023/09/09 08:13:31;;;;;;;90.25;66.78;;;20.60;99.90;;;;;;4959612;28;20038;-76
2023/09/09 08:16:00;;;;;;;67.68;55.88;;;20.60;99.90;;;;;;4955048;28;20027;-76
2023/09/09 08:18:26;;;;;;;77.10;58.97;;;20.60;99.90;;;;;;4959414;28;20027;-76
2023/09/09 08:20:52;;;;;;;85.55;67.88;;;20.60;99.90;;;;;;4963127;28;20382;-76
2023/09/09 08:23:18;;;;;;;89.43;69.60;;;20.70;99.90;;;;;;4955865;28;20105;-76
2023/09/09 08:25:44;;;;;;;90.55;70.90;;;20.70;99.90;;;;;;4955507;28;20027;-76
2023/09/09 08:28:10;;;;;;;87.80;69.15;;;20.70;99.90;;;;;;4962271;28;20031;-76
2023/09/09 08:30:35;;;;;;;97.55;75.22;;;20.70;99.90;;;;;;4942937;28;20046;-76
2023/09/09 08:33:01;;;;;;;95.90;72.72;;;20.70;99.90;;;;;;4954492;28;20046;-76
2023/09/09 08:35:30;;;;;;;99.00;76.43;;;20.80;99.90;;;;;;4959251;28;20424;-76
2023/09/09 08:37:55;;;;;;;81.15;65.90;;;20.80;99.90;;;;;;4962519;28;20026;-76
2023/09/09 08:40:21;;;;;;;97.85;75.55;;;20.90;99.90;;;;;;4956169;28;20055;-76
2023/09/09 08:43:14;;;;;;;90.40;69.03;;;20.90;99.90;;;;;;4954860;28;20026;-76
2023/09/09 08:45:58;;;;;;;100.80;77.00;;;20.90;99.90;;;;;;4948146;28;20015;-76
2023/09/09 08:48:27;;;;;;;90.30;70.15;;;20.90;99.90;;;;;;4954296;28;20026;-75
2023/09/09 08:50:57;;;;;;;100.70;77.00;;;21.00;99.90;;;;;;4958029;28;20047;-76
2023/09/09 08:53:25;;;;;;;91.15;71.93;;;21.00;99.90;;;;;;4944380;28;20076;-77
2023/09/09 08:55:52;;;;;;;99.05;77.95;;;21.10;99.90;;;;;;4957846;28;20026;-77
2023/09/09 08:58:18;;;;;;;95.57;75.47;;;21.10;99.90;;;;;;4934757;29;20031;-78
2023/09/09 09:00:43;;;;;;;102.95;80.82;;;21.20;99.90;;;;;;4956366;28;20536;-75
2023/09/09 09:03:11;;;;;;;103.22;81.65;;;21.20;99.90;;;;;;4954566;28;20076;-76
2023/09/09 09:05:38;;;;;;;96.10;77.50;;;21.30;99.90;;;;;;4962502;28;20027;-77
2023/09/09 09:08:04;;;;;;;96.00;76.90;;;21.30;99.90;;;;;;4960148;28;20015;-77
2023/09/09 09:10:31;;;;;;;95.13;78.53;;;21.40;99.90;;;;;;4954293;28;20050;-76
2023/09/09 09:12:56;;;;;;;98.88;77.47;;;21.40;99.90;;;;;;4936931;28;20614;-78
2023/09/09 09:15:24;;;;;;;104.68;79.60;;;21.50;99.90;;;;;;4955790;28;20031;-77
2023/09/09 09:17:51;;;;;;;105.40;83.68;;;21.60;99.90;;;;;;4961618;28;20024;-76
2023/09/09 09:20:25;;;;;;;94.55;75.95;;;21.70;99.90;;;;;;4958834;28;20186;-77
2023/09/09 09:22:51;;;;;;;100.03;81.25;;;21.80;99.90;;;;;;4936616;28;20019;-77
2023/09/09 09:25:23;;;;;;;85.55;71.00;;;21.90;99.90;;;;;;4958429;28;20042;-77
2023/09/09 09:27:49;;;;;;;105.85;84.95;;;22.00;99.90;;;;;;4961729;28;20486;-77
2023/09/09 09:30:14;;;;;;;97.28;76.85;;;22.10;99.90;;;;;;4948697;29;20030;-77
2023/09/09 09:32:41;;;;;;;97.45;77.25;;;22.20;99.90;;;;;;4942100;28;20070;-77
2023/09/09 09:35:28;;;;;;;95.75;76.30;;;22.30;99.90;;;;;;4961313;28;20082;-77
2023/09/09 09:38:09;;;;;;;97.88;78.35;;;22.40;99.90;;;;;;4960361;28;20054;-77
2023/09/09 09:40:36;;;;;;;82.55;69.93;;;22.50;99.90;;;;;;4957422;28;20516;-77
2023/09/09 09:43:02;;;;;;;78.07;66.30;;;22.60;99.90;;;;;;4953928;28;20075;-77
2023/09/09 09:45:29;;;;;;;79.90;66.55;;;22.70;99.90;;;;;;4942945;29;20027;-77
2023/09/09 09:47:57;;;;;;;80.30;66.60;;;22.80;99.90;;;;;;4961941;28;20098;-77
2023/09/09 09:50:30;;;;;;;79.05;67.63;;;22.90;99.90;;;;;;4954250;28;20106;-77
2023/09/09 09:53:01;;;;;;;72.20;60.47;;;23.10;99.90;;;;;;4954455;28;20127;-78
2023/09/09 09:55:28;;;;;;;76.95;62.25;;;23.20;99.90;;;;;;4934920;29;20020;-78
2023/09/09 09:57:59;;;;;;;67.45;57.97;;;23.30;99.90;;;;;;4960460;28;20031;-77
2023/09/09 10:00:25;;;;;;;;;;;23.40;99.90;;;;;;4954427;28;20023;-77
2023/09/09 10:02:58;;;;;;;67.32;57.95;;;23.50;99.90;;;;;;4956918;28;19913;-77
2023/09/09 10:05:26;;;;;;;63.30;54.33;;;23.60;99.90;;;;;;4960080;28;20023;-77
2023/09/09 10:08:20;;;;;;;64.65;56.67;;;23.70;99.90;;;;;;4957930;28;20042;-77
2023/09/09 10:11:15;;;;;;;70.10;55.00;;;23.90;99.90;;;;;;4940869;28;20023;-78
2023/09/09 10:13:46;;;;;;;59.83;50.63;;;24.00;99.90;;;;;;4961237;28;20113;-78
2023/09/09 10:16:15;;;;;;;57.75;51.55;;;24.10;99.90;;;;;;4957350;28;20885;-77
2023/09/09 10:18:42;;;;;;;54.03;48.03;;;24.20;99.90;;;;;;4959601;28;20429;-78
2023/09/09 10:21:09;;;;;;;51.90;46.42;;;24.30;99.90;;;;;;4947827;29;20028;-78
2023/09/09 10:23:36;;;;;;;54.05;46.20;;;24.40;99.90;;;;;;4942976;28;20046;-77
2023/09/09 10:26:04;;;;;;;49.08;43.85;;;24.50;99.90;;;;;;4957139;28;20059;-77
2023/09/09 10:28:30;;;;;;;50.88;45.08;;;24.60;99.90;;;;;;4962890;28;20065;-78
2023/09/09 10:30:58;;;;;;;53.55;47.72;;;24.70;99.90;;;;;;4964824;28;20027;-77
2023/09/09 10:33:27;;;;;;;48.78;43.47;;;24.80;99.90;;;;;;4956947;28;20031;-78
2023/09/09 10:35:54;;;;;;;45.38;40.65;;;24.90;99.90;;;;;;4940717;29;20049;-78
2023/09/09 10:38:23;;;;;;;49.15;40.50;;;24.90;99.90;;;;;;4946723;29;20033;-78
2023/09/09 10:40:49;;;;;;;41.80;37.30;;;25.10;99.90;;;;;;4959685;28;20051;-78
2023/09/09 10:43:15;;;;;;;36.78;32.88;;;25.10;99.90;;;;;;4956437;28;20073;-78
2023/09/09 10:45:43;;;;;;;36.28;32.40;;;25.30;99.90;;;;;;4961193;28;20027;-78
2023/09/09 10:48:10;;;;;;;35.75;32.05;;;25.40;99.90;;;;;;4964432;28;20019;-78
2023/09/09 10:50:49;;;;;;;37.53;31.73;;;25.50;99.90;;;;;;4958602;28;20019;-78
2023/09/09 10:53:28;;;;;;;36.75;31.88;;;25.60;99.90;;;;;;4954773;28;20037;-78
2023/09/09 10:55:55;;;;;;;32.80;29.20;;;25.70;99.90;;;;;;4960835;28;20019;-78
2023/09/09 10:58:29;;;;;;;35.80;32.00;;;25.80;99.90;;;;;;4951989;28;20042;-78
2023/09/09 11:00:55;;;;;;;34.38;30.73;;;25.80;99.90;;;;;;4961407;28;20031;-78
2023/09/09 11:03:22;;;;;;;36.60;32.65;;;25.90;99.90;;;;;;4960575;28;20138;-78
2023/09/09 11:06:10;;;;;;;36.65;31.48;;;26.00;99.90;;;;;;4970181;28;20026;-78
2023/09/09 11:08:41;;;;;;;37.20;33.15;;;26.10;99.90;;;;;;4955898;28;20063;-78
2023/09/09 11:11:13;;;;;;;34.80;31.10;;;26.20;99.90;;;;;;4966007;28;20034;-76
2023/09/09 11:13:41;;;;;;;32.20;28.73;;;26.30;99.90;;;;;;4957993;28;20082;-76
2023/09/09 11:16:07;;;;;;;39.75;32.50;;;26.40;99.90;;;;;;4962674;28;20027;-76
2023/09/09 11:18:36;;;;;;;35.70;31.83;;;26.40;99.90;;;;;;4959917;28;20476;-75
2023/09/09 11:21:05;;;;;;;34.28;30.27;;;26.40;99.90;;;;;;4955698;28;20047;-75
2023/09/09 11:23:32;;;;;;;36.15;31.70;;;26.50;99.90;;;;;;4964744;28;20030;-76
2023/09/09 11:25:59;;;;;;;32.95;28.90;;;26.60;99.90;;;;;;4978454;28;20081;-79
2023/09/09 11:28:26;;;;;;;33.90;29.13;;;26.60;99.90;;;;;;4957265;28;20034;-76
2023/09/09 11:30:51;;;;;;;30.35;26.27;;;26.60;99.90;;;;;;4965142;28;20031;-78
2023/09/09 11:33:24;;;;;;;28.20;25.17;;;26.60;99.90;;;;;;4963280;28;20067;-76
2023/09/09 11:35:50;;;;;;;25.33;22.60;;;26.70;99.90;;;;;;4977182;28;20102;-75
2023/09/09 11:38:16;;;;;;;26.08;23.30;;;26.80;99.90;;;;;;4955474;28;20023;-75
2023/09/09 11:40:41;;;;;;;25.08;22.38;;;26.90;99.90;;;;;;4959058;28;20405;-76
2023/09/09 11:43:10;;;;;;;25.08;22.13;;;26.90;99.90;;;;;;4963103;28;20764;-75
2023/09/09 11:45:36;;;;;;;22.88;20.60;;;27.00;99.90;;;;;;4939765;28;20523;-76
2023/09/09 11:48:03;;;;;;;28.48;20.23;;;27.10;99.90;;;;;;4953553;28;20122;-76
2023/09/09 11:50:40;;;;;;;21.58;17.50;;;27.20;99.90;;;;;;4960266;28;20034;-76
2023/09/09 11:53:05;;;;;;;15.98;14.32;;;27.20;99.90;;;;;;4963168;28;20034;-77
2023/09/09 11:55:31;;;;;;;15.65;13.60;;;27.30;99.90;;;;;;4956308;28;20019;-76
2023/09/09 11:57:57;;;;;;;15.85;13.85;;;27.40;99.90;;;;;;4956474;28;20023;-76
2023/09/09 12:00:22;;;;;;;17.17;15.38;;;27.40;99.90;;;;;;4945806;29;20016;-76
2023/09/09 12:02:58;;;;;;;20.55;17.52;;;27.50;99.90;;;;;;4942252;28;20014;-77
2023/09/09 12:05:29;;;;;;;18.52;16.52;;;27.50;99.90;;;;;;4961051;28;20031;-76
2023/09/09 12:07:57;;;;;;;13.40;11.80;;;27.50;99.90;;;;;;4942493;28;20023;-76
2023/09/09 12:10:27;;;;;;;12.10;9.73;;;27.60;99.90;;;;;;4937652;28;20030;-76
2023/09/09 12:12:53;;;;;;;12.90;9.43;;;27.60;99.90;;;;;;4954906;28;20022;-76
2023/09/09 12:15:19;;;;;;;13.63;11.10;;;27.70;99.90;;;;;;4957342;28;20038;-75
2023/09/09 12:17:45;;;;;;;13.45;8.18;;;27.80;99.90;;;;;;4945126;29;20394;-76
2023/09/09 12:20:11;;;;;;;15.18;10.85;;;27.90;99.90;;;;;;4958599;28;20031;-76
2023/09/09 12:22:46;;;;;;;15.43;11.82;;;27.90;99.90;;;;;;4954627;28;20036;-76
2023/09/09 12:25:35;;;;;;;14.02;10.30;;;28.00;99.90;;;;;;4960029;28;20023;-79
2023/09/09 12:28:02;;;;;;;11.35;10.00;;;28.00;99.90;;;;;;4962327;28;20474;-76